createdAt,value
2019-03-15T00:00:28.534Z,31.43
2019-03-15T00:03:01.946Z,31.33
2019-03-15T00:05:42.689Z,30.88
2019-03-15T00:08:17.049Z,31.32
2019-03-15T00:10:51.974Z,32.84
2019-03-15T00:13:25.238Z,31.71
2019-03-15T00:15:58.419Z,30.63
2019-03-15T00:18:31.847Z,30.96
2019-03-15T00:21:05.998Z,31.34
2019-03-15T00:23:39.407Z,30.45
2019-03-15T00:26:12.798Z,30.23
2019-03-15T00:28:47.221Z,29.65
2019-03-15T00:31:21.999Z,29.42
2019-03-15T00:33:56.722Z,29.96
2019-03-15T00:36:30.244Z,30.53
2019-03-15T00:39:03.545Z,29.37
2019-03-15T00:41:36.915Z,29.69
2019-03-15T00:44:11.712Z,30.23
2019-03-15T00:46:45.336Z,28.27
2019-03-15T00:49:18.590Z,29.13
2019-03-15T00:51:51.977Z,28.82
2019-03-15T00:54:25.402Z,28.94
2019-03-15T00:56:58.785Z,30.15
2019-03-15T00:59:34.153Z,28.77
2019-03-15T01:02:07.518Z,27.35
2019-03-15T01:04:40.960Z,28.11
2019-03-15T01:07:14.239Z,27.97
2019-03-15T01:09:47.559Z,27.72
2019-03-15T01:12:21.160Z,26.62
2019-03-15T01:14:55.920Z,27.00
2019-03-15T01:17:29.304Z,27.08
2019-03-15T01:20:03.121Z,23.78
2019-03-15T01:22:36.407Z,23.09
2019-03-15T01:25:10.569Z,23.44
2019-03-15T01:27:45.777Z,22.76
2019-03-15T01:30:19.562Z,24.07
2019-03-15T01:32:52.873Z,23.87
2019-03-15T01:35:26.139Z,23.56
2019-03-15T01:37:59.463Z,22.20
2019-03-15T01:40:32.658Z,22.37
2019-03-15T01:43:06.198Z,23.07
2019-03-15T01:45:39.486Z,22.63
2019-03-15T01:48:13.403Z,23.38
2019-03-15T01:50:47.778Z,23.05
2019-03-15T01:53:23.467Z,22.55
2019-03-15T01:55:57.163Z,22.69
2019-03-15T01:58:30.389Z,22.08
2019-03-15T02:01:04.545Z,21.84
2019-03-15T02:03:38.309Z,21.24
2019-03-15T02:06:11.714Z,21.39
2019-03-15T02:08:44.985Z,20.99
2019-03-15T02:11:19.834Z,21.04
2019-03-15T02:13:53.075Z,19.98
2019-03-15T02:16:27.293Z,19.68
2019-03-15T02:19:00.608Z,20.00
2019-03-15T02:21:33.866Z,19.44
2019-03-15T02:24:07.090Z,18.88
2019-03-15T02:26:40.440Z,18.59
2019-03-15T02:29:14.742Z,18.24
2019-03-15T02:31:48.120Z,18.70
2019-03-15T02:34:21.482Z,18.55
2019-03-15T02:36:56.577Z,18.61
2019-03-15T02:39:29.832Z,18.78
2019-03-15T02:42:03.125Z,19.02
2019-03-15T02:44:36.553Z,19.00
2019-03-15T02:47:09.871Z,19.13
2019-03-15T02:49:43.299Z,19.41
2019-03-15T02:52:16.534Z,18.83
2019-03-15T02:54:49.825Z,19.40
2019-03-15T02:57:23.029Z,19.38
2019-03-15T02:59:56.337Z,18.74
2019-03-15T03:02:29.809Z,18.87
2019-03-15T03:05:02.958Z,18.50
2019-03-15T03:07:36.543Z,18.79
2019-03-15T03:10:24.202Z,18.57
2019-03-15T03:13:01.367Z,18.98
2019-03-15T03:15:34.581Z,18.96
2019-03-15T03:18:07.802Z,19.62
2019-03-15T03:20:42.818Z,20.07
2019-03-15T03:23:16.138Z,19.83
2019-03-15T03:25:49.493Z,19.48
2019-03-15T03:28:22.805Z,19.91
2019-03-15T03:30:56.152Z,20.07
2019-03-15T03:33:30.890Z,19.97
2019-03-15T03:36:04.245Z,19.97
2019-03-15T03:38:39.097Z,19.61
2019-03-15T03:41:12.343Z,19.21
2019-03-15T03:43:45.924Z,18.74
2019-03-15T03:46:19.275Z,19.62
2019-03-15T03:48:53.989Z,19.45
2019-03-15T03:51:27.375Z,19.53
2019-03-15T03:54:00.694Z,19.27
2019-03-15T03:56:43.855Z,19.72
2019-03-15T03:59:21.521Z,19.47
2019-03-15T04:01:57.196Z,18.85
2019-03-15T04:04:29.286Z,19.84
2019-03-15T04:07:02.744Z,19.45
2019-03-15T04:09:36.264Z,19.07
2019-03-15T04:12:10.939Z,19.16
2019-03-15T04:14:47.117Z,19.33
2019-03-15T04:17:22.086Z,18.95
2019-03-15T04:19:58.416Z,19.48
2019-03-15T04:22:35.608Z,19.08
2019-03-15T04:25:12.075Z,19.08
2019-03-15T04:27:47.153Z,19.10
2019-03-15T04:30:23.910Z,19.10
2019-03-15T04:32:59.409Z,18.97
2019-03-15T04:35:34.596Z,18.76
2019-03-15T04:38:11.115Z,18.76
2019-03-15T04:40:45.063Z,18.19
2019-03-15T04:43:19.328Z,17.55
2019-03-15T04:45:52.685Z,17.55
2019-03-15T04:48:26.270Z,17.33
2019-03-15T04:50:59.705Z,18.44
2019-03-15T04:53:33.101Z,17.52
2019-03-15T04:56:06.388Z,16.91
2019-03-15T04:58:39.897Z,17.36
2019-03-15T05:01:13.293Z,17.88
2019-03-15T05:03:46.907Z,17.49
2019-03-15T05:06:20.140Z,17.70
2019-03-15T05:08:53.477Z,17.14
2019-03-15T05:11:26.964Z,16.93
2019-03-15T05:14:01.675Z,15.95
2019-03-15T05:16:35.176Z,16.58
2019-03-15T05:19:08.449Z,16.53
2019-03-15T05:21:41.680Z,16.43
2019-03-15T05:24:15.295Z,16.78
2019-03-15T05:26:50.009Z,17.42
2019-03-15T05:29:23.226Z,17.86
2019-03-15T05:31:56.514Z,17.25
2019-03-15T05:34:29.677Z,17.47
2019-03-15T05:37:03.458Z,17.89
2019-03-15T05:39:36.686Z,17.62
2019-03-15T05:42:12.488Z,17.22
2019-03-15T05:44:44.896Z,17.93
2019-03-15T05:47:18.902Z,17.65
2019-03-15T05:49:52.236Z,17.78
2019-03-15T05:52:25.565Z,17.50
2019-03-15T05:54:59.018Z,17.59
2019-03-15T05:57:32.410Z,17.52
2019-03-15T06:00:06.685Z,17.79
2019-03-15T06:02:39.999Z,17.87
2019-03-15T06:05:13.598Z,17.61
2019-03-15T06:07:47.051Z,17.69
2019-03-15T06:10:22.505Z,18.20
2019-03-15T06:12:55.110Z,17.15
2019-03-15T06:15:28.623Z,16.86
2019-03-15T06:18:06.696Z,16.92
2019-03-15T06:20:39.246Z,17.52
2019-03-15T06:23:12.569Z,18.03
2019-03-15T06:25:51.796Z,17.77
2019-03-15T06:28:24.179Z,17.88
2019-03-15T06:30:57.522Z,18.26
2019-03-15T06:33:32.147Z,18.37
2019-03-15T06:36:05.615Z,18.37
2019-03-15T06:38:38.989Z,18.11
2019-03-15T06:41:23.684Z,17.98
2019-03-15T06:43:47.809Z,17.76
2019-03-15T06:46:21.519Z,17.43
2019-03-15T06:48:55.159Z,17.47
2019-03-15T06:51:29.837Z,17.64
2019-03-15T06:54:11.492Z,17.99
2019-03-15T06:56:38.447Z,18.16
2019-03-15T06:59:11.947Z,18.29
2019-03-15T07:01:45.188Z,18.43
2019-03-15T07:04:18.599Z,18.40
2019-03-15T07:06:52.271Z,18.41
2019-03-15T07:09:25.847Z,18.62
2019-03-15T07:12:09.380Z,18.61
2019-03-15T07:14:36.265Z,18.51
2019-03-15T07:17:09.516Z,18.66
2019-03-15T07:19:42.990Z,18.84
2019-03-15T07:22:19.943Z,18.11
2019-03-15T07:24:53.388Z,17.93
2019-03-15T07:27:26.757Z,18.29
2019-03-15T07:30:00.575Z,18.52
2019-03-15T07:32:35.308Z,17.95
2019-03-15T07:35:09.465Z,17.98
2019-03-15T07:37:45.387Z,17.91
2019-03-15T07:40:19.121Z,17.95
2019-03-15T07:42:52.635Z,18.25
2019-03-15T07:45:26.286Z,18.16
2019-03-15T07:48:00.958Z,18.26
2019-03-15T07:50:34.437Z,18.55
2019-03-15T07:53:07.997Z,18.50
2019-03-15T07:55:41.805Z,18.42
2019-03-15T07:58:15.060Z,18.36
2019-03-15T08:00:48.552Z,18.43
2019-03-15T08:03:21.884Z,18.44
2019-03-15T08:05:56.230Z,18.54
2019-03-15T08:08:29.515Z,18.55
2019-03-15T08:11:02.805Z,18.41
2019-03-15T08:13:36.228Z,18.72
2019-03-15T08:16:09.607Z,18.78
2019-03-15T08:18:43.010Z,18.70
2019-03-15T08:21:16.413Z,18.89
2019-03-15T08:23:49.792Z,18.84
2019-03-15T08:26:23.122Z,18.85
2019-03-15T08:28:57.000Z,18.71
2019-03-15T08:31:30.252Z,19.33
2019-03-15T08:34:05.275Z,18.98
2019-03-15T08:36:40.046Z,19.51
2019-03-15T08:39:13.598Z,19.54
2019-03-15T08:41:47.056Z,19.54
2019-03-15T08:44:20.419Z,19.80
2019-03-15T08:46:57.148Z,19.30
2019-03-15T08:49:32.115Z,19.56
2019-03-15T08:52:09.553Z,20.12
2019-03-15T08:54:46.406Z,20.09
2019-03-15T08:57:17.867Z,20.28
2019-03-15T08:59:56.830Z,20.25
2019-03-15T09:02:26.952Z,20.51
2019-03-15T09:05:01.544Z,20.71
2019-03-15T09:07:35.157Z,20.65
2019-03-15T09:10:24.035Z,21.02
2019-03-15T09:12:54.411Z,20.90
2019-03-15T09:15:27.677Z,20.82
2019-03-15T09:18:02.401Z,20.92
2019-03-15T09:20:38.695Z,21.25
2019-03-15T09:23:12.144Z,21.30
2019-03-15T09:25:45.811Z,21.64
2019-03-15T09:28:19.070Z,21.76
2019-03-15T09:30:54.094Z,21.66
2019-03-15T09:33:27.732Z,22.17
2019-03-15T09:36:01.310Z,21.98
2019-03-15T09:38:36.360Z,22.37
2019-03-15T09:41:09.744Z,22.20
2019-03-15T09:43:45.448Z,22.44
2019-03-15T09:46:18.671Z,22.68
2019-03-15T09:48:53.042Z,22.68
2019-03-15T09:51:26.568Z,22.77
2019-03-15T09:53:59.987Z,22.75
2019-03-15T09:56:33.813Z,23.35
2019-03-15T09:59:09.377Z,22.98
2019-03-15T10:01:43.211Z,23.07
2019-03-15T10:04:17.420Z,23.43
2019-03-15T10:06:51.648Z,23.66
2019-03-15T10:09:27.956Z,23.52
2019-03-15T10:12:02.163Z,23.60
2019-03-15T10:14:36.707Z,23.59
2019-03-15T10:17:11.224Z,23.85
2019-03-15T10:19:46.034Z,24.02
2019-03-15T10:22:20.837Z,24.34
2019-03-15T10:24:55.996Z,24.22
2019-03-15T10:27:33.197Z,24.50
2019-03-15T10:30:14.851Z,24.27
2019-03-15T10:32:50.984Z,24.47
2019-03-15T10:35:26.960Z,24.78
2019-03-15T10:38:01.962Z,24.87
2019-03-15T10:40:40.152Z,24.77
2019-03-15T10:43:15.190Z,24.80
2019-03-15T10:45:51.955Z,24.93
2019-03-15T10:48:28.841Z,25.24
2019-03-15T10:51:03.990Z,25.72
2019-03-15T10:53:38.519Z,25.54
2019-03-15T10:56:14.233Z,25.90
2019-03-15T10:58:51.579Z,26.12
2019-03-15T11:01:26.219Z,26.20
2019-03-15T11:04:00.953Z,26.14
2019-03-15T11:06:39.001Z,26.08
2019-03-15T11:09:16.079Z,26.40
2019-03-15T11:11:55.043Z,26.21
2019-03-15T11:14:29.188Z,26.47
2019-03-15T11:17:03.066Z,26.99
2019-03-15T11:19:37.109Z,26.44
2019-03-15T11:22:13.269Z,26.38
2019-03-15T11:24:47.210Z,26.89
2019-03-15T11:27:21.637Z,26.66
2019-03-15T11:29:57.592Z,26.83
2019-03-15T11:32:33.243Z,27.21
2019-03-15T11:35:13.032Z,27.21
2019-03-15T11:37:47.108Z,27.31
2019-03-15T11:40:21.213Z,27.39
2019-03-15T11:42:55.213Z,27.58
2019-03-15T11:45:29.439Z,27.53
2019-03-15T11:48:04.469Z,27.97
2019-03-15T11:50:41.307Z,27.85
2019-03-15T11:53:18.716Z,27.73
2019-03-15T11:55:51.378Z,28.00
2019-03-15T11:58:27.774Z,28.44
2019-03-15T12:01:02.270Z,28.23
2019-03-15T12:03:36.566Z,28.42
2019-03-15T12:06:10.935Z,28.52
2019-03-15T12:08:46.943Z,28.89
2019-03-15T12:11:23.228Z,28.85
2019-03-15T12:13:57.756Z,29.15
2019-03-15T12:16:32.274Z,29.08
2019-03-15T12:19:06.771Z,29.32
2019-03-15T12:21:42.974Z,29.35
2019-03-15T12:24:17.386Z,29.12
2019-03-15T12:26:53.927Z,29.58
2019-03-15T12:29:28.645Z,29.36
2019-03-15T12:32:03.509Z,29.38
2019-03-15T12:34:40.145Z,29.76
2019-03-15T12:37:15.605Z,29.81
2019-03-15T12:39:50.620Z,29.95
2019-03-15T12:42:27.595Z,29.81
2019-03-15T12:45:03.766Z,30.01
2019-03-15T12:47:39.399Z,30.11
2019-03-15T12:50:18.058Z,30.64
2019-03-15T12:52:52.825Z,31.02
2019-03-15T12:55:29.354Z,30.76
2019-03-15T12:58:03.346Z,30.77
2019-03-15T13:00:37.427Z,30.86
2019-03-15T13:03:12.041Z,31.33
2019-03-15T13:05:46.526Z,31.18
2019-03-15T13:08:20.937Z,31.63
2019-03-15T13:10:55.035Z,31.67
2019-03-15T13:13:29.787Z,32.16
2019-03-15T13:16:05.841Z,32.04
2019-03-15T13:18:42.611Z,31.97
2019-03-15T13:21:20.802Z,32.20
2019-03-15T13:23:55.564Z,32.30
2019-03-15T13:26:30.367Z,32.47
2019-03-15T13:29:05.241Z,32.63
2019-03-15T13:31:39.753Z,32.83
2019-03-15T13:34:14.432Z,32.95
2019-03-15T13:36:53.988Z,32.94
2019-03-15T13:39:28.627Z,33.21
2019-03-15T13:42:02.525Z,33.21
2019-03-15T13:44:38.397Z,33.40
2019-03-15T13:47:14.678Z,33.34
2019-03-15T13:49:52.853Z,33.41
2019-03-15T13:52:27.487Z,33.41
2019-03-15T13:55:01.825Z,33.39
2019-03-15T13:57:36.196Z,33.92
2019-03-15T14:00:16.132Z,34.20
2019-03-15T14:02:50.640Z,34.31
2019-03-15T14:05:24.511Z,34.31
2019-03-15T14:08:11.217Z,34.78
2019-03-15T14:10:49.291Z,34.44
2019-03-15T14:13:15.519Z,34.52
2019-03-15T14:15:51.744Z,34.91
2019-03-15T14:18:26.651Z,34.80
2019-03-15T14:21:03.559Z,34.82
2019-03-15T14:23:38.367Z,34.86
2019-03-15T14:26:12.550Z,34.79
2019-03-15T14:28:47.026Z,35.01
2019-03-15T14:31:21.844Z,35.10
2019-03-15T14:33:56.345Z,35.26
2019-03-15T14:36:31.883Z,35.47
2019-03-15T14:39:06.769Z,35.19
2019-03-15T14:41:41.116Z,35.07
2019-03-15T14:44:18.076Z,35.51
2019-03-15T14:46:50.324Z,35.55
2019-03-15T14:49:24.748Z,35.51
2019-03-15T14:51:59.832Z,35.40
2019-03-15T14:54:34.381Z,35.38
2019-03-15T14:57:10.440Z,35.16
2019-03-15T14:59:44.879Z,35.26
2019-03-15T15:02:18.916Z,35.68
2019-03-15T15:04:53.363Z,35.57
2019-03-15T15:07:27.791Z,35.67
2019-03-15T15:10:03.421Z,35.59
2019-03-15T15:12:37.678Z,35.86
2019-03-15T15:15:13.974Z,36.05
2019-03-15T15:17:48.096Z,35.94
2019-03-15T15:20:23.012Z,35.96
2019-03-15T15:22:56.826Z,36.18
2019-03-15T15:25:33.706Z,36.41
2019-03-15T15:28:07.767Z,36.63
2019-03-15T15:30:41.982Z,36.62
2019-03-15T15:33:16.192Z,36.92
2019-03-15T15:35:51.084Z,36.61
2019-03-15T15:38:24.716Z,36.99
2019-03-15T15:40:59.083Z,37.54
2019-03-15T15:43:33.235Z,37.20
2019-03-15T15:46:07.420Z,37.28
2019-03-15T15:48:41.534Z,36.80
2019-03-15T15:51:16.555Z,36.94
2019-03-15T15:53:50.245Z,37.24
2019-03-15T15:56:25.080Z,38.00
2019-03-15T15:59:02.903Z,37.85
2019-03-15T16:01:37.124Z,37.75
2019-03-15T16:04:11.068Z,37.69
2019-03-15T16:06:44.802Z,37.71
2019-03-15T16:09:18.393Z,37.64
2019-03-15T16:11:53.803Z,37.16
2019-03-15T16:14:27.492Z,37.07
2019-03-15T16:17:01.394Z,37.59
2019-03-15T16:19:35.209Z,37.76
2019-03-15T16:22:09.269Z,37.68
2019-03-15T16:24:43.270Z,37.64
2019-03-15T16:27:17.413Z,38.06
2019-03-15T16:29:51.571Z,38.47
2019-03-15T16:32:27.342Z,38.10
2019-03-15T16:35:01.104Z,37.75
2019-03-15T16:37:35.296Z,37.60
2019-03-15T16:40:11.580Z,38.98
2019-03-15T16:42:46.132Z,39.19
2019-03-15T16:45:30.446Z,39.17
2019-03-15T16:48:04.812Z,39.07
2019-03-15T16:50:38.903Z,38.70
2019-03-15T16:53:14.313Z,38.34
2019-03-15T16:55:50.712Z,38.14
2019-03-15T16:58:24.792Z,38.72
2019-03-15T17:00:58.668Z,39.17
2019-03-15T17:03:31.958Z,39.07
2019-03-15T17:06:05.247Z,38.71
2019-03-15T17:08:40.504Z,38.40
2019-03-15T17:11:14.234Z,38.48
2019-03-15T17:13:47.907Z,38.84
2019-03-15T17:16:21.564Z,39.15
2019-03-15T17:18:55.709Z,39.07
2019-03-15T17:21:29.117Z,38.99
2019-03-15T17:24:06.097Z,38.97
2019-03-15T17:26:40.125Z,39.04
2019-03-15T17:29:13.523Z,39.16
2019-03-15T17:31:47.259Z,39.28
2019-03-15T17:34:20.646Z,39.26
2019-03-15T17:37:06.161Z,39.61
2019-03-15T17:39:29.573Z,40.17
2019-03-15T17:42:03.894Z,40.29
2019-03-15T17:44:37.685Z,40.56
2019-03-15T17:47:12.437Z,40.39
2019-03-15T17:49:46.151Z,40.61
2019-03-15T17:52:20.267Z,41.16
2019-03-15T17:54:53.934Z,41.17
2019-03-15T17:57:27.560Z,41.32
2019-03-15T18:00:21.564Z,41.96
2019-03-15T18:02:55.722Z,42.66
2019-03-15T18:05:29.545Z,42.53
2019-03-15T18:08:05.721Z,42.39
2019-03-15T18:10:39.681Z,42.84
2019-03-15T18:13:13.736Z,42.60
2019-03-15T18:15:51.120Z,42.39
2019-03-15T18:18:30.555Z,42.35
2019-03-15T18:21:10.565Z,42.72
2019-03-15T18:23:46.486Z,43.22
2019-03-15T18:26:20.210Z,44.18
2019-03-15T18:28:53.894Z,44.89
2019-03-15T18:31:27.494Z,44.89
2019-03-15T18:34:03.050Z,45.54
2019-03-15T18:36:36.846Z,45.09
2019-03-15T18:39:10.932Z,45.37
2019-03-15T18:41:45.735Z,45.77
2019-03-15T18:44:19.701Z,45.95
2019-03-15T18:46:55.397Z,45.95
2019-03-15T18:49:31.150Z,45.75
2019-03-15T18:52:04.933Z,47.20
2019-03-15T18:54:38.618Z,47.30
2019-03-15T18:57:12.503Z,47.05
2019-03-15T18:59:47.491Z,46.79
2019-03-15T19:02:21.376Z,46.77
2019-03-15T19:04:55.194Z,47.36
2019-03-15T19:07:29.197Z,47.77
2019-03-15T19:10:03.006Z,47.64
2019-03-15T19:12:40.076Z,48.28
2019-03-15T19:15:22.267Z,48.68
2019-03-15T19:17:56.162Z,48.30
2019-03-15T19:20:30.075Z,47.82
2019-03-15T19:23:04.872Z,48.66
2019-03-15T19:25:40.416Z,49.39
2019-03-15T19:28:14.290Z,49.14
2019-03-15T19:30:48.118Z,48.53
2019-03-15T19:33:21.349Z,48.48
2019-03-15T19:35:54.714Z,48.91
2019-03-15T19:38:28.006Z,49.15
2019-03-15T19:41:02.223Z,48.59
2019-03-15T19:43:35.675Z,48.52
2019-03-15T19:46:09.195Z,48.26
2019-03-15T19:48:42.457Z,47.92
2019-03-15T19:51:15.683Z,47.98
2019-03-15T19:53:49.154Z,48.78
2019-03-15T19:56:23.766Z,48.43
2019-03-15T19:58:57.644Z,48.15
2019-03-15T20:01:30.985Z,48.07
2019-03-15T20:04:05.985Z,47.87
2019-03-15T20:06:39.425Z,47.49
2019-03-15T20:09:12.790Z,47.61
2019-03-15T20:11:46.082Z,47.66
2019-03-15T20:14:19.386Z,47.22
2019-03-15T20:16:52.787Z,47.32
2019-03-15T20:19:26.032Z,46.71
2019-03-15T20:22:00.611Z,46.74
2019-03-15T20:24:36.842Z,46.98
2019-03-15T20:27:11.417Z,46.98
2019-03-15T20:29:45.982Z,47.00
2019-03-15T20:32:19.270Z,46.98
2019-03-15T20:34:52.734Z,47.26
2019-03-15T20:37:26.088Z,46.94
2019-03-15T20:39:59.303Z,46.97
2019-03-15T20:42:35.545Z,47.36
2019-03-15T20:45:19.924Z,47.41
2019-03-15T20:47:53.325Z,47.71
2019-03-15T20:50:26.537Z,47.50
2019-03-15T20:53:08.092Z,47.69
2019-03-15T20:55:35.141Z,48.14
2019-03-15T20:58:08.529Z,47.92
2019-03-15T21:00:41.848Z,47.72
2019-03-15T21:03:15.176Z,47.72
2019-03-15T21:05:48.413Z,47.75
2019-03-15T21:08:21.704Z,48.16
2019-03-15T21:10:55.018Z,47.91
2019-03-15T21:13:28.235Z,47.67
2019-03-15T21:16:01.633Z,47.80
2019-03-15T21:18:35.372Z,47.63
2019-03-15T21:21:08.652Z,47.95
2019-03-15T21:23:42.005Z,48.10
2019-03-15T21:26:15.204Z,48.12
2019-03-15T21:28:49.750Z,48.50
2019-03-15T21:31:22.956Z,48.53
2019-03-15T21:33:57.756Z,48.44
2019-03-15T21:36:31.039Z,48.09
2019-03-15T21:39:05.823Z,48.27
2019-03-15T21:41:40.720Z,48.59
2019-03-15T21:44:17.198Z,48.61
2019-03-15T21:46:48.704Z,49.07
2019-03-15T21:49:23.271Z,49.21
2019-03-15T21:51:58.198Z,48.80
2019-03-15T21:54:31.596Z,48.74
2019-03-15T21:57:05.444Z,48.82
2019-03-15T21:59:40.520Z,48.70
2019-03-15T22:02:16.486Z,48.64
2019-03-15T22:04:49.905Z,48.61
2019-03-15T22:07:23.145Z,48.62
2019-03-15T22:09:56.436Z,48.44
2019-03-15T22:12:29.879Z,48.03
2019-03-15T22:15:03.205Z,47.70
2019-03-15T22:17:36.663Z,47.76
2019-03-15T22:20:20.947Z,47.94
2019-03-15T22:22:54.230Z,47.15
2019-03-15T22:25:27.487Z,47.54
2019-03-15T22:28:02.449Z,47.24
2019-03-15T22:30:35.876Z,46.04
2019-03-15T22:33:09.287Z,46.29
2019-03-15T22:35:42.680Z,46.68
2019-03-15T22:38:25.622Z,46.75
2019-03-15T22:40:50.674Z,45.95
2019-03-15T22:43:23.980Z,45.79
2019-03-15T22:45:57.406Z,46.44
2019-03-15T22:48:30.824Z,44.93
2019-03-15T22:51:04.059Z,45.32
2019-03-15T22:53:37.390Z,44.93
2019-03-15T22:56:10.806Z,44.63
2019-03-15T22:58:45.862Z,44.74
2019-03-15T23:01:29.671Z,44.49
2019-03-15T23:03:53.717Z,44.95
2019-03-15T23:06:27.190Z,43.98
2019-03-15T23:09:00.684Z,41.85
2019-03-15T23:11:35.145Z,41.13
2019-03-15T23:14:08.696Z,39.49
2019-03-15T23:16:42.396Z,38.46
2019-03-15T23:19:16.006Z,38.27
2019-03-15T23:21:51.740Z,36.36
2019-03-15T23:24:24.101Z,36.80
2019-03-15T23:26:57.764Z,36.74
2019-03-15T23:29:31.168Z,36.57
2019-03-15T23:32:04.384Z,36.39
2019-03-15T23:34:40.992Z,36.45
2019-03-15T23:37:14.417Z,35.13
2019-03-15T23:39:47.756Z,34.89
2019-03-15T23:42:21.373Z,32.42
2019-03-15T23:44:59.645Z,30.90
2019-03-15T23:47:33.087Z,30.88
2019-03-15T23:50:11.689Z,30.62
2019-03-15T23:52:48.203Z,30.93
2019-03-15T23:55:22.784Z,29.69
2019-03-15T23:57:56.097Z,29.27
